createdAt,value
2019-03-21T00:00:05.114Z,2.25
2019-03-21T00:01:05.465Z,2.25
2019-03-21T00:02:05.623Z,2.25
2019-03-21T00:03:05.593Z,2.25
2019-03-21T00:04:06.000Z,2.25
2019-03-21T00:05:05.432Z,2.19
2019-03-21T00:06:05.834Z,2.19
2019-03-21T00:07:05.925Z,2.19
2019-03-21T00:08:05.203Z,2.19
2019-03-21T00:09:05.368Z,2.19
2019-03-21T00:10:05.045Z,2.12
2019-03-21T00:11:05.207Z,2.19
2019-03-21T00:12:05.371Z,2.19
2019-03-21T00:13:05.456Z,2.12
2019-03-21T00:14:07.105Z,2.12
2019-03-21T00:15:05.829Z,2.12
2019-03-21T00:16:05.127Z,2.12
2019-03-21T00:17:05.229Z,2.12
2019-03-21T00:18:05.839Z,2.12
2019-03-21T00:19:05.532Z,2.12
2019-03-21T00:20:06.086Z,2.12
2019-03-21T00:21:05.033Z,2.12
2019-03-21T00:22:05.548Z,2.06
2019-03-21T00:23:05.605Z,2.06
2019-03-21T00:24:05.915Z,2.06
2019-03-21T00:25:05.756Z,2.06
2019-03-21T00:26:05.985Z,2.06
2019-03-21T00:28:05.874Z,2.00
2019-03-21T00:29:05.834Z,2.00
2019-03-21T00:30:05.872Z,2.00
2019-03-21T00:31:05.943Z,2.00
2019-03-21T00:32:05.203Z,2.00
2019-03-21T00:33:05.828Z,1.94
2019-03-21T00:34:06.112Z,1.94
2019-03-21T00:35:05.128Z,1.94
2019-03-21T00:36:05.862Z,1.94
2019-03-21T00:37:05.911Z,1.94
2019-03-21T00:38:06.006Z,1.94
2019-03-21T00:39:05.115Z,1.94
2019-03-21T00:40:06.167Z,1.94
2019-03-21T00:41:05.539Z,1.88
2019-03-21T00:42:05.612Z,1.88
2019-03-21T00:43:05.271Z,1.88
2019-03-21T00:44:05.456Z,1.81
2019-03-21T00:45:05.506Z,1.81
2019-03-21T00:46:05.634Z,1.81
2019-03-21T00:47:05.780Z,1.81
2019-03-21T00:48:05.128Z,1.75
2019-03-21T00:49:05.138Z,1.81
2019-03-21T00:50:05.874Z,1.81
2019-03-21T00:51:05.824Z,1.81
2019-03-21T00:52:05.524Z,1.75
2019-03-21T00:53:05.597Z,1.75
2019-03-21T00:54:05.774Z,1.75
2019-03-21T00:55:05.843Z,1.69
2019-03-21T00:56:05.926Z,1.75
2019-03-21T00:57:05.689Z,1.69
2019-03-21T00:58:05.210Z,1.75
2019-03-21T00:59:05.358Z,1.69
2019-03-21T01:00:05.533Z,1.69
2019-03-21T01:01:05.607Z,1.69
2019-03-21T01:02:05.944Z,1.69
2019-03-21T01:03:05.446Z,1.69
2019-03-21T01:04:05.452Z,1.69
2019-03-21T01:05:05.999Z,1.62
2019-03-21T01:06:05.059Z,1.62
2019-03-21T01:07:05.454Z,1.69
2019-03-21T01:08:05.790Z,1.62
2019-03-21T01:09:05.936Z,1.62
2019-03-21T01:10:05.035Z,1.56
2019-03-21T01:11:05.276Z,1.56
2019-03-21T01:12:05.367Z,1.56
2019-03-21T01:13:05.925Z,1.56
2019-03-21T01:14:05.998Z,1.56
2019-03-21T01:15:05.272Z,1.56
2019-03-21T01:16:05.785Z,1.56
2019-03-21T01:17:05.938Z,1.56
2019-03-21T01:18:05.212Z,1.56
2019-03-21T01:19:05.767Z,1.56
2019-03-21T01:20:05.770Z,1.56
2019-03-21T01:21:05.906Z,1.56
2019-03-21T01:22:05.523Z,1.56
2019-03-21T01:23:05.927Z,1.50
2019-03-21T01:24:05.449Z,1.50
2019-03-21T01:25:05.019Z,1.50
2019-03-21T01:26:05.215Z,1.50
2019-03-21T01:27:05.371Z,1.50
2019-03-21T01:28:05.447Z,1.50
2019-03-21T01:29:05.265Z,1.50
2019-03-21T01:30:05.454Z,1.50
2019-03-21T01:31:05.993Z,1.50
2019-03-21T01:32:05.426Z,1.50
2019-03-21T01:33:05.930Z,1.44
2019-03-21T01:34:06.098Z,1.44
2019-03-21T01:35:05.439Z,1.44
2019-03-21T01:36:05.934Z,1.44
2019-03-21T01:37:05.364Z,1.44
2019-03-21T01:38:05.538Z,1.44
2019-03-21T01:39:06.084Z,1.44
2019-03-21T01:40:05.129Z,1.44
2019-03-21T01:41:05.833Z,1.44
2019-03-21T01:42:05.283Z,1.44
2019-03-21T01:43:05.868Z,1.44
2019-03-21T01:44:05.466Z,1.38
2019-03-21T01:45:05.537Z,1.38
2019-03-21T01:46:05.683Z,1.38
2019-03-21T01:47:05.446Z,1.38
2019-03-21T01:48:05.444Z,1.38
2019-03-21T01:49:06.013Z,1.38
2019-03-21T01:50:05.151Z,1.31
2019-03-21T01:51:05.188Z,1.31
2019-03-21T01:52:05.357Z,1.31
2019-03-21T01:53:05.790Z,1.31
2019-03-21T01:54:05.767Z,1.31
2019-03-21T01:55:05.346Z,1.31
2019-03-21T01:56:05.529Z,1.31
2019-03-21T01:57:05.668Z,1.31
2019-03-21T01:58:05.859Z,1.31
2019-03-21T01:59:06.000Z,1.31
2019-03-21T02:00:05.231Z,1.31
2019-03-21T02:01:05.300Z,1.31
2019-03-21T02:02:05.463Z,1.31
2019-03-21T02:03:05.530Z,1.31
2019-03-21T02:04:05.794Z,1.31
2019-03-21T02:05:06.004Z,1.25
2019-03-21T02:06:05.135Z,1.25
2019-03-21T02:07:05.364Z,1.25
2019-03-21T02:08:05.866Z,1.19
2019-03-21T02:09:05.851Z,1.19
2019-03-21T02:10:06.008Z,1.19
2019-03-21T02:11:05.368Z,1.19
2019-03-21T02:12:05.942Z,1.12
2019-03-21T02:13:05.438Z,1.12
2019-03-21T02:14:05.216Z,1.12
2019-03-21T02:15:05.460Z,1.12
2019-03-21T02:16:05.466Z,1.12
2019-03-21T02:17:05.447Z,1.12
2019-03-21T02:18:05.709Z,1.12
2019-03-21T02:19:05.125Z,1.12
2019-03-21T02:20:06.080Z,1.12
2019-03-21T02:21:05.291Z,1.12
2019-03-21T02:22:05.440Z,1.12
2019-03-21T02:23:05.691Z,1.12
2019-03-21T02:24:05.127Z,1.06
2019-03-21T02:25:05.245Z,1.06
2019-03-21T02:26:05.538Z,1.06
2019-03-21T02:27:05.612Z,1.06
2019-03-21T02:28:05.829Z,1.06
2019-03-21T02:29:05.376Z,1.06
2019-03-21T02:30:05.574Z,1.06
2019-03-21T02:31:05.764Z,1.06
2019-03-21T02:32:05.775Z,1.06
2019-03-21T02:33:05.923Z,1.06
2019-03-21T02:34:05.139Z,1.06
2019-03-21T02:35:05.634Z,1.06
2019-03-21T02:36:05.771Z,1.06
2019-03-21T02:37:05.227Z,1.06
2019-03-21T02:38:05.214Z,1.00
2019-03-21T02:39:05.218Z,1.00
2019-03-21T02:40:05.521Z,1.00
2019-03-21T02:41:05.682Z,1.00
2019-03-21T02:42:05.946Z,1.00
2019-03-21T02:43:05.952Z,0.94
2019-03-21T02:44:05.618Z,0.94
2019-03-21T02:45:08.763Z,0.94
2019-03-21T02:46:05.105Z,1.00
2019-03-21T02:47:05.372Z,1.00
2019-03-21T02:48:05.598Z,0.94
2019-03-21T02:49:05.059Z,0.94
2019-03-21T02:50:05.293Z,0.94
2019-03-21T02:51:05.772Z,0.94
2019-03-21T02:52:05.246Z,0.94
2019-03-21T02:53:05.764Z,0.94
2019-03-21T02:54:06.166Z,0.94
2019-03-21T02:55:05.171Z,0.94
2019-03-21T02:56:05.914Z,0.94
2019-03-21T02:57:05.036Z,0.88
2019-03-21T02:58:05.354Z,0.88
2019-03-21T02:59:06.107Z,0.88
2019-03-21T03:00:05.119Z,0.88
2019-03-21T03:01:05.696Z,0.88
2019-03-21T03:02:05.938Z,0.88
2019-03-21T03:03:06.024Z,0.88
2019-03-21T03:04:05.132Z,0.88
2019-03-21T03:05:05.372Z,0.88
2019-03-21T03:06:05.841Z,0.88
2019-03-21T03:07:05.588Z,0.88
2019-03-21T03:08:05.926Z,0.81
2019-03-21T03:09:05.217Z,0.81
2019-03-21T03:10:05.349Z,0.81
2019-03-21T03:11:05.942Z,0.81
2019-03-21T03:12:06.010Z,0.81
2019-03-21T03:13:05.135Z,0.81
2019-03-21T03:14:05.590Z,0.81
2019-03-21T03:15:05.485Z,0.75
2019-03-21T03:16:05.631Z,0.75
2019-03-21T03:17:05.142Z,0.75
2019-03-21T03:18:05.200Z,0.75
2019-03-21T03:19:05.396Z,0.75
2019-03-21T03:20:05.513Z,0.75
2019-03-21T03:21:05.630Z,0.75
2019-03-21T03:22:05.205Z,0.75
2019-03-21T03:23:05.697Z,0.75
2019-03-21T03:24:05.747Z,0.75
2019-03-21T03:25:05.925Z,0.69
2019-03-21T03:26:05.700Z,0.75
2019-03-21T03:27:05.947Z,0.75
2019-03-21T03:28:05.036Z,0.75
2019-03-21T03:29:05.296Z,0.75
2019-03-21T03:30:05.916Z,0.75
2019-03-21T03:31:05.238Z,0.75
2019-03-21T03:32:05.143Z,0.69
2019-03-21T03:33:05.606Z,0.69
2019-03-21T03:34:05.897Z,0.69
2019-03-21T03:35:06.041Z,0.69
2019-03-21T03:36:05.304Z,0.69
2019-03-21T03:37:05.298Z,0.69
2019-03-21T03:38:05.272Z,0.69
2019-03-21T03:39:05.462Z,0.62
2019-03-21T03:40:05.999Z,0.62
2019-03-21T03:41:05.139Z,0.62
2019-03-21T03:42:05.508Z,0.62
2019-03-21T03:43:05.155Z,0.62
2019-03-21T03:44:05.676Z,0.62
2019-03-21T03:45:05.778Z,0.62
2019-03-21T03:46:05.447Z,0.62
2019-03-21T03:47:05.609Z,0.62
2019-03-21T03:48:05.025Z,0.62
2019-03-21T03:49:05.698Z,0.62
2019-03-21T03:50:05.304Z,0.62
2019-03-21T03:51:05.529Z,0.56
2019-03-21T03:52:05.035Z,0.56
2019-03-21T03:53:05.779Z,0.56
2019-03-21T03:54:05.865Z,0.56
2019-03-21T03:55:05.121Z,0.56
2019-03-21T03:56:05.207Z,0.56
2019-03-21T03:57:05.387Z,0.56
2019-03-21T03:58:05.441Z,0.56
2019-03-21T03:59:05.600Z,0.56
2019-03-21T04:00:06.162Z,0.56
2019-03-21T04:01:05.706Z,0.56
2019-03-21T04:02:05.861Z,0.56
2019-03-21T04:03:05.956Z,0.56
2019-03-21T04:04:05.121Z,0.56
2019-03-21T04:05:05.297Z,0.56
2019-03-21T04:06:05.764Z,0.56
2019-03-21T04:07:05.915Z,0.56
2019-03-21T04:08:05.362Z,0.50
2019-03-21T04:09:05.360Z,0.50
2019-03-21T04:10:05.682Z,0.50
2019-03-21T04:11:05.846Z,0.50
2019-03-21T04:12:05.513Z,0.50
2019-03-21T04:13:05.763Z,0.50
2019-03-21T04:14:05.129Z,0.44
2019-03-21T04:15:05.371Z,0.44
2019-03-21T04:16:05.378Z,0.44
2019-03-21T04:17:05.952Z,0.44
2019-03-21T04:18:05.843Z,0.44
2019-03-21T04:19:06.913Z,0.44
2019-03-21T04:20:05.201Z,0.44
2019-03-21T04:21:05.286Z,0.44
2019-03-21T04:22:05.684Z,0.38
2019-03-21T04:23:05.758Z,0.38
2019-03-21T04:24:05.271Z,0.38
2019-03-21T04:25:05.608Z,0.38
2019-03-21T04:26:05.799Z,0.38
2019-03-21T04:27:05.048Z,0.38
2019-03-21T04:28:05.208Z,0.38
2019-03-21T04:29:05.687Z,0.38
2019-03-21T04:30:05.277Z,0.38
2019-03-21T04:31:05.531Z,0.38
2019-03-21T04:32:05.193Z,0.38
2019-03-21T04:33:05.362Z,0.38
2019-03-21T04:34:05.921Z,0.38
2019-03-21T04:35:05.133Z,0.38
2019-03-21T04:36:05.341Z,0.38
2019-03-21T04:37:05.538Z,0.38
2019-03-21T04:38:05.585Z,0.38
2019-03-21T04:39:05.284Z,0.38
2019-03-21T04:40:05.909Z,0.31
2019-03-21T04:41:05.624Z,0.31
2019-03-21T04:42:05.694Z,0.31
2019-03-21T04:43:06.021Z,0.31
2019-03-21T04:44:05.134Z,0.31
2019-03-21T04:45:05.300Z,0.31
2019-03-21T04:46:05.437Z,0.31
2019-03-21T04:47:05.707Z,0.31
2019-03-21T04:48:05.677Z,0.31
2019-03-21T04:49:06.107Z,0.31
2019-03-21T04:50:05.234Z,0.31
2019-03-21T04:51:05.363Z,0.31
2019-03-21T04:52:05.915Z,0.31
2019-03-21T04:53:05.397Z,0.31
2019-03-21T04:54:05.747Z,0.31
2019-03-21T04:55:06.004Z,0.25
2019-03-21T04:56:05.289Z,0.25
2019-03-21T04:57:06.003Z,0.25
2019-03-21T04:58:05.534Z,0.25
2019-03-21T04:59:05.937Z,0.25
2019-03-21T05:00:05.113Z,0.25
2019-03-21T05:01:05.379Z,0.25
2019-03-21T05:02:05.439Z,0.25
2019-03-21T05:03:06.005Z,0.25
2019-03-21T05:04:05.226Z,0.25
2019-03-21T05:05:05.404Z,0.25
2019-03-21T05:06:05.853Z,0.31
2019-03-21T05:07:06.009Z,0.62
2019-03-21T05:08:05.221Z,0.56
2019-03-21T05:09:05.928Z,0.69
2019-03-21T05:10:05.433Z,0.69
2019-03-21T05:11:05.368Z,0.69
2019-03-21T05:12:05.746Z,0.62
2019-03-21T05:13:05.443Z,0.94
2019-03-21T05:14:05.840Z,0.94
2019-03-21T05:15:06.008Z,1.19
2019-03-21T05:16:14.233Z,1.31
2019-03-21T05:17:05.539Z,1.19
2019-03-21T05:18:05.921Z,1.12
2019-03-21T05:19:05.282Z,1.00
2019-03-21T05:20:06.095Z,0.94
2019-03-21T05:21:05.213Z,0.94
2019-03-21T05:22:05.524Z,0.88
2019-03-21T05:23:05.679Z,0.81
2019-03-21T05:24:05.044Z,0.88
2019-03-21T05:25:06.015Z,0.81
2019-03-21T05:26:05.288Z,0.75
2019-03-21T05:27:06.524Z,0.88
2019-03-21T05:28:05.998Z,1.00
2019-03-21T05:29:05.853Z,1.12
2019-03-21T05:30:05.905Z,1.19
2019-03-21T05:31:05.600Z,1.38
2019-03-21T05:32:06.008Z,1.62
2019-03-21T05:33:05.671Z,1.69
2019-03-21T05:34:06.028Z,1.75
2019-03-21T05:35:05.690Z,2.00
2019-03-21T05:36:06.117Z,2.12
2019-03-21T05:37:05.189Z,2.19
2019-03-21T05:38:05.929Z,2.12
2019-03-21T05:39:05.603Z,2.12
2019-03-21T05:40:05.769Z,2.12
2019-03-21T05:41:05.759Z,2.25
2019-03-21T05:42:05.554Z,2.19
2019-03-21T05:43:05.447Z,2.06
2019-03-21T05:44:06.109Z,2.00
2019-03-21T05:45:05.448Z,2.00
2019-03-21T05:46:05.791Z,1.94
2019-03-21T05:47:05.827Z,1.88
2019-03-21T05:48:05.577Z,1.88
2019-03-21T05:49:05.205Z,1.81
2019-03-21T05:50:05.943Z,1.75
2019-03-21T05:51:05.427Z,1.69
2019-03-21T05:52:05.782Z,1.62
2019-03-21T05:53:05.919Z,1.62
2019-03-21T05:54:05.768Z,1.75
2019-03-21T05:55:05.697Z,1.94
2019-03-21T05:56:05.796Z,2.19
2019-03-21T05:57:06.001Z,2.50
2019-03-21T05:58:05.620Z,2.75
2019-03-21T05:59:05.120Z,2.94
2019-03-21T06:00:05.307Z,3.12
2019-03-21T06:01:05.354Z,3.31
2019-03-21T06:02:05.521Z,3.50
2019-03-21T06:03:05.858Z,3.69
2019-03-21T06:04:05.492Z,3.88
2019-03-21T06:05:05.775Z,4.12
2019-03-21T06:06:06.005Z,4.31
2019-03-21T06:07:06.088Z,4.50
2019-03-21T06:08:05.299Z,4.62
2019-03-21T06:09:05.479Z,4.75
2019-03-21T06:10:05.533Z,4.94
2019-03-21T06:11:05.201Z,5.19
2019-03-21T06:12:05.850Z,5.38
2019-03-21T06:13:06.825Z,5.50
2019-03-21T06:14:05.127Z,5.56
2019-03-21T06:15:06.669Z,5.69
2019-03-21T06:16:06.006Z,5.81
2019-03-21T06:17:05.986Z,5.88
2019-03-21T06:18:05.106Z,6.00
2019-03-21T06:19:05.410Z,6.12
2019-03-21T06:20:05.528Z,6.12
2019-03-21T06:21:05.209Z,6.25
2019-03-21T06:22:05.447Z,6.38
2019-03-21T06:23:05.381Z,6.50
2019-03-21T06:24:05.543Z,6.56
2019-03-21T06:25:05.524Z,6.69
2019-03-21T06:26:05.127Z,6.81
2019-03-21T06:27:13.903Z,6.88
2019-03-21T06:28:05.378Z,7.00
2019-03-21T06:29:05.121Z,7.12
2019-03-21T06:30:05.384Z,7.19
2019-03-21T06:31:05.633Z,7.31
2019-03-21T06:32:05.777Z,7.44
2019-03-21T06:33:05.747Z,7.62
2019-03-21T06:34:05.475Z,7.69
2019-03-21T06:35:05.770Z,7.88
2019-03-21T06:36:05.763Z,8.31
2019-03-21T06:37:05.518Z,8.44
2019-03-21T06:38:05.233Z,8.50
2019-03-21T06:39:05.281Z,8.56
2019-03-21T06:40:05.377Z,8.69
2019-03-21T06:41:05.997Z,8.81
2019-03-21T06:42:05.536Z,8.94
2019-03-21T06:43:05.928Z,9.00
2019-03-21T06:44:05.459Z,9.12
2019-03-21T06:45:05.128Z,9.25
2019-03-21T06:46:05.537Z,9.38
2019-03-21T06:47:05.911Z,9.44
2019-03-21T06:48:05.994Z,9.69
2019-03-21T06:49:05.598Z,9.81
2019-03-21T06:50:05.605Z,9.88
2019-03-21T06:51:06.099Z,10.06
2019-03-21T06:52:05.442Z,10.19
2019-03-21T06:53:05.678Z,10.25
2019-03-21T06:54:05.312Z,10.38
2019-03-21T06:55:05.532Z,10.50
2019-03-21T06:56:05.548Z,10.62
2019-03-21T06:57:05.843Z,10.69
2019-03-21T06:58:06.006Z,10.81
2019-03-21T06:59:05.370Z,10.88
2019-03-21T07:00:06.025Z,10.94
2019-03-21T07:01:05.360Z,11.06
2019-03-21T07:02:06.103Z,11.06
2019-03-21T07:03:05.530Z,11.25
2019-03-21T07:04:07.219Z,11.31
2019-03-21T07:05:05.169Z,11.44
2019-03-21T07:06:05.311Z,11.50
2019-03-21T07:07:08.270Z,11.62
2019-03-21T07:08:06.089Z,11.69
2019-03-21T07:09:05.358Z,11.81
2019-03-21T07:10:05.364Z,11.94
2019-03-21T07:11:06.108Z,12.00
2019-03-21T07:12:05.363Z,12.19
2019-03-21T07:13:05.846Z,12.25
2019-03-21T07:14:05.709Z,12.31
2019-03-21T07:15:05.877Z,12.38
2019-03-21T07:16:06.016Z,12.44
2019-03-21T07:17:05.282Z,12.56
2019-03-21T07:18:05.543Z,12.62
2019-03-21T07:19:06.011Z,12.75
2019-03-21T07:20:05.381Z,12.81
2019-03-21T07:21:05.942Z,12.88
2019-03-21T07:22:05.995Z,12.94
2019-03-21T07:23:05.446Z,13.06
2019-03-21T07:24:05.685Z,13.12
2019-03-21T07:25:05.919Z,13.19
2019-03-21T07:26:06.704Z,13.31
2019-03-21T07:27:05.526Z,13.44
2019-03-21T07:28:05.936Z,13.44
2019-03-21T07:29:05.860Z,13.69
2019-03-21T07:30:05.927Z,13.94
2019-03-21T07:31:05.191Z,14.00
2019-03-21T07:32:05.456Z,14.00
2019-03-21T07:33:05.943Z,14.06
2019-03-21T07:34:05.299Z,14.06
2019-03-21T07:35:05.614Z,14.12
2019-03-21T07:36:05.605Z,14.12
2019-03-21T07:37:05.300Z,14.19
2019-03-21T07:38:05.530Z,14.25
2019-03-21T07:39:05.538Z,14.25
2019-03-21T07:40:05.768Z,14.44
2019-03-21T07:41:05.957Z,14.44
2019-03-21T07:42:05.208Z,14.50
2019-03-21T07:43:05.681Z,14.56
2019-03-21T07:44:05.126Z,14.69
2019-03-21T07:45:05.877Z,14.62
2019-03-21T07:46:05.932Z,14.62
2019-03-21T07:47:12.484Z,14.62
2019-03-21T07:48:05.872Z,14.62
2019-03-21T07:49:06.000Z,14.69
2019-03-21T07:50:05.072Z,14.62
2019-03-21T07:51:05.674Z,14.62
2019-03-21T07:52:05.775Z,14.69
2019-03-21T07:53:05.907Z,14.75
2019-03-21T07:54:05.369Z,14.75
2019-03-21T07:55:05.831Z,14.75
2019-03-21T07:56:05.389Z,14.75
2019-03-21T07:57:05.381Z,14.75
2019-03-21T07:58:05.206Z,14.75
2019-03-21T07:59:05.908Z,14.75
2019-03-21T08:00:06.589Z,14.75
2019-03-21T08:01:06.277Z,14.75
2019-03-21T08:02:05.391Z,14.88
2019-03-21T08:03:05.436Z,15.00
2019-03-21T08:04:06.094Z,15.19
2019-03-21T08:05:05.763Z,15.38
2019-03-21T08:06:05.546Z,15.38
2019-03-21T08:07:05.715Z,15.38
2019-03-21T08:08:06.007Z,15.38
2019-03-21T08:09:06.062Z,15.31
2019-03-21T08:10:05.614Z,15.31
2019-03-21T08:11:05.355Z,15.25
2019-03-21T08:12:05.942Z,15.25
2019-03-21T08:13:05.143Z,15.25
2019-03-21T08:14:05.206Z,15.19
2019-03-21T08:15:05.461Z,15.19
2019-03-21T08:16:05.619Z,15.19
2019-03-21T08:17:05.701Z,15.12
2019-03-21T08:18:06.010Z,15.12
2019-03-21T08:19:05.146Z,15.12
2019-03-21T08:20:05.528Z,15.12
2019-03-21T08:21:05.236Z,15.12
2019-03-21T08:22:05.558Z,15.12
2019-03-21T08:23:05.511Z,15.06
2019-03-21T08:24:05.774Z,15.12
2019-03-21T08:25:05.388Z,15.12
2019-03-21T08:26:05.580Z,15.06
2019-03-21T08:27:06.016Z,15.00
2019-03-21T08:28:05.891Z,15.00
2019-03-21T08:29:05.951Z,15.00
2019-03-21T08:30:05.235Z,15.19
2019-03-21T08:31:06.183Z,15.38
2019-03-21T08:32:05.547Z,15.50
2019-03-21T08:33:05.326Z,15.62
2019-03-21T08:34:05.645Z,15.75
2019-03-21T08:35:05.702Z,15.69
2019-03-21T08:36:06.299Z,15.62
2019-03-21T08:37:05.726Z,15.56
2019-03-21T08:38:05.797Z,15.50
2019-03-21T08:39:05.952Z,15.50
2019-03-21T08:40:05.882Z,15.69
2019-03-21T08:41:05.703Z,15.62
2019-03-21T08:42:05.887Z,15.62
2019-03-21T08:43:06.199Z,15.62
2019-03-21T08:44:05.668Z,15.50
2019-03-21T08:45:05.731Z,15.44
2019-03-21T08:46:05.721Z,15.38
2019-03-21T08:47:05.309Z,15.31
2019-03-21T08:48:05.910Z,15.25
2019-03-21T08:49:05.390Z,15.19
2019-03-21T08:50:06.046Z,15.12
2019-03-21T08:51:08.440Z,15.06
2019-03-21T08:52:05.900Z,15.06
2019-03-21T08:53:05.948Z,15.00
2019-03-21T08:54:05.195Z,14.94
2019-03-21T08:55:05.427Z,14.94
2019-03-21T08:56:05.583Z,14.94
2019-03-21T08:57:05.164Z,14.88
2019-03-21T08:58:05.341Z,14.88
2019-03-21T08:59:05.791Z,14.88
2019-03-21T09:00:05.243Z,14.81
2019-03-21T09:01:06.029Z,14.81
2019-03-21T09:02:05.142Z,14.81
2019-03-21T09:03:05.770Z,14.75
2019-03-21T09:04:06.038Z,14.75
2019-03-21T09:05:05.519Z,14.69
2019-03-21T09:06:05.147Z,14.69
2019-03-21T09:07:05.452Z,14.62
2019-03-21T09:08:05.609Z,14.62
2019-03-21T09:09:05.211Z,14.62
2019-03-21T09:10:07.898Z,14.62
2019-03-21T09:11:05.683Z,14.62
2019-03-21T09:12:05.297Z,14.56
2019-03-21T09:13:05.287Z,14.56
2019-03-21T09:14:05.452Z,14.56
2019-03-21T09:15:07.988Z,14.56
2019-03-21T09:16:05.828Z,14.50
2019-03-21T09:17:06.082Z,14.50
2019-03-21T09:18:05.685Z,14.50
2019-03-21T09:19:05.843Z,14.44
2019-03-21T09:20:05.209Z,14.44
2019-03-21T09:21:05.745Z,14.44
2019-03-21T09:22:05.378Z,14.44
2019-03-21T09:23:05.359Z,14.44
2019-03-21T09:24:05.994Z,14.38
2019-03-21T09:25:05.309Z,14.38
2019-03-21T09:26:05.451Z,14.38
2019-03-21T09:27:06.013Z,14.38
2019-03-21T09:28:05.538Z,14.31
2019-03-21T09:29:05.688Z,14.25
2019-03-21T09:30:05.698Z,14.25
2019-03-21T09:31:05.216Z,14.25
2019-03-21T09:32:05.142Z,14.12
2019-03-21T09:33:05.621Z,14.19
2019-03-21T09:34:05.685Z,14.12
2019-03-21T09:35:05.751Z,14.19
2019-03-21T09:36:05.851Z,14.19
2019-03-21T09:37:05.273Z,14.19
2019-03-21T09:38:05.479Z,14.25
2019-03-21T09:39:05.201Z,14.31
2019-03-21T09:40:05.785Z,14.31
2019-03-21T09:41:05.831Z,14.31
2019-03-21T09:42:05.612Z,14.25
2019-03-21T09:43:05.118Z,14.19
2019-03-21T09:44:05.218Z,14.44
2019-03-21T09:45:05.915Z,14.50
2019-03-21T09:46:06.001Z,14.50
2019-03-21T09:47:05.599Z,14.44
2019-03-21T09:48:05.859Z,14.44
2019-03-21T09:49:06.016Z,14.38
2019-03-21T09:50:05.619Z,14.38
2019-03-21T09:51:05.919Z,14.31
2019-03-21T09:52:05.457Z,14.31
2019-03-21T09:53:05.929Z,14.31
2019-03-21T09:54:09.839Z,14.25
2019-03-21T09:55:05.352Z,14.25
2019-03-21T09:56:05.523Z,14.25
2019-03-21T09:57:05.999Z,14.25
2019-03-21T09:58:05.132Z,14.25
2019-03-21T09:59:05.285Z,14.25
2019-03-21T10:00:05.367Z,14.25
2019-03-21T10:01:06.084Z,14.31
2019-03-21T10:02:05.068Z,14.31
2019-03-21T10:03:05.289Z,14.31
2019-03-21T10:04:05.384Z,14.31
2019-03-21T10:05:05.377Z,14.31
2019-03-21T10:06:05.636Z,14.38
2019-03-21T10:07:05.985Z,14.31
2019-03-21T10:08:05.298Z,14.38
2019-03-21T10:09:05.766Z,14.38
2019-03-21T10:10:06.925Z,14.38
2019-03-21T10:11:05.277Z,14.38
2019-03-21T10:12:05.527Z,14.38
2019-03-21T10:13:05.063Z,14.38
2019-03-21T10:14:05.774Z,14.44
2019-03-21T10:15:05.349Z,14.44
2019-03-21T10:16:06.182Z,14.44
2019-03-21T10:17:05.326Z,14.44
2019-03-21T10:18:05.366Z,14.44
2019-03-21T10:19:06.099Z,14.44
2019-03-21T10:20:05.106Z,14.50
2019-03-21T10:21:05.356Z,14.50
2019-03-21T10:22:05.447Z,14.50
2019-03-21T10:23:05.532Z,14.56
2019-03-21T10:24:05.764Z,14.56
2019-03-21T10:25:05.282Z,14.56
2019-03-21T10:26:05.921Z,14.62
2019-03-21T10:27:05.033Z,14.62
2019-03-21T10:28:05.771Z,14.62
2019-03-21T10:29:05.527Z,14.62
2019-03-21T10:30:05.696Z,14.69
2019-03-21T10:31:05.757Z,14.69
2019-03-21T10:32:13.818Z,14.69
2019-03-21T10:33:05.028Z,14.75
2019-03-21T10:34:05.292Z,14.75
2019-03-21T10:35:05.692Z,14.75
2019-03-21T10:36:06.106Z,14.75
2019-03-21T10:37:05.299Z,14.75
2019-03-21T10:38:05.383Z,14.75
2019-03-21T10:39:05.462Z,14.75
2019-03-21T10:40:05.451Z,14.81
2019-03-21T10:41:05.849Z,14.81
2019-03-21T10:42:05.763Z,14.88
2019-03-21T10:43:06.002Z,14.88
2019-03-21T10:44:05.215Z,14.88
2019-03-21T10:45:05.718Z,14.94
2019-03-21T10:46:06.019Z,14.94
2019-03-21T10:47:05.137Z,14.94
2019-03-21T10:48:05.451Z,14.94
2019-03-21T10:49:05.531Z,14.94
2019-03-21T10:50:05.845Z,14.94
2019-03-21T10:51:05.293Z,14.94
2019-03-21T10:52:05.699Z,15.00
2019-03-21T10:53:05.067Z,14.94
2019-03-21T10:54:05.210Z,15.00
2019-03-21T10:55:05.530Z,15.00
2019-03-21T10:56:06.018Z,15.06
2019-03-21T10:57:05.035Z,15.06
2019-03-21T10:58:05.618Z,15.06
2019-03-21T10:59:05.772Z,14.94
2019-03-21T11:00:05.122Z,15.00
2019-03-21T11:01:05.208Z,15.00
2019-03-21T11:02:07.400Z,14.94
2019-03-21T11:03:05.122Z,14.94
2019-03-21T11:04:05.763Z,14.94
2019-03-21T11:05:05.451Z,14.94
2019-03-21T11:06:05.615Z,14.94
2019-03-21T11:07:05.664Z,15.00
2019-03-21T11:08:05.905Z,15.00
2019-03-21T11:09:05.283Z,15.06
2019-03-21T11:10:05.293Z,15.12
2019-03-21T11:11:05.440Z,15.12
2019-03-21T11:12:05.031Z,15.19
2019-03-21T11:13:05.284Z,15.19
2019-03-21T11:14:05.438Z,15.31
2019-03-21T11:15:05.110Z,15.44
2019-03-21T11:16:05.447Z,15.44
2019-03-21T11:17:05.674Z,15.50
2019-03-21T11:18:05.932Z,15.50
2019-03-21T11:19:05.367Z,15.50
2019-03-21T11:20:05.934Z,15.50
2019-03-21T11:21:05.433Z,15.50
2019-03-21T11:22:06.446Z,15.56
2019-03-21T11:23:05.517Z,15.75
2019-03-21T11:24:06.179Z,16.00
2019-03-21T11:25:05.198Z,16.06
2019-03-21T11:26:05.848Z,16.06
2019-03-21T11:27:05.925Z,16.06
2019-03-21T11:28:05.992Z,16.06
2019-03-21T11:29:05.373Z,16.06
2019-03-21T11:30:15.571Z,16.06
2019-03-21T11:31:05.751Z,16.06
2019-03-21T11:32:05.840Z,16.06
2019-03-21T11:33:06.076Z,16.06
2019-03-21T11:34:05.527Z,16.06
2019-03-21T11:35:05.846Z,16.06
2019-03-21T11:36:06.095Z,16.06
2019-03-21T11:37:05.284Z,16.06
2019-03-21T11:38:05.934Z,16.12
2019-03-21T11:39:06.094Z,16.12
2019-03-21T11:40:05.217Z,16.12
2019-03-21T11:41:05.368Z,16.12
2019-03-21T11:42:05.450Z,16.12
2019-03-21T11:43:05.561Z,16.12
2019-03-21T11:44:06.036Z,16.12
2019-03-21T11:45:05.209Z,16.12
2019-03-21T11:46:05.431Z,16.12
2019-03-21T11:47:05.790Z,16.12
2019-03-21T11:48:05.764Z,16.12
2019-03-21T11:49:05.429Z,16.12
2019-03-21T11:50:05.602Z,16.19
2019-03-21T11:51:06.084Z,16.25
2019-03-21T11:52:05.431Z,16.44
2019-03-21T11:53:05.835Z,16.44
2019-03-21T11:54:05.267Z,16.44
2019-03-21T11:55:05.526Z,16.44
2019-03-21T11:56:06.127Z,16.38
2019-03-21T11:57:06.003Z,16.38
2019-03-21T11:58:05.135Z,16.31
2019-03-21T11:59:05.365Z,16.31
2019-03-21T12:00:05.603Z,16.31
2019-03-21T12:01:06.011Z,16.31
2019-03-21T12:02:05.291Z,16.31
2019-03-21T12:03:05.921Z,16.38
2019-03-21T12:04:05.221Z,16.38
2019-03-21T12:05:05.776Z,16.38
2019-03-21T12:06:05.943Z,16.38
2019-03-21T12:07:05.906Z,16.38
2019-03-21T12:08:05.531Z,16.44
2019-03-21T12:09:05.692Z,16.44
2019-03-21T12:10:05.851Z,16.44
2019-03-21T12:11:05.276Z,16.50
2019-03-21T12:12:05.862Z,16.50
2019-03-21T12:13:06.078Z,16.50
2019-03-21T12:14:05.217Z,16.50
2019-03-21T12:15:05.293Z,16.50
2019-03-21T12:16:05.582Z,16.50
2019-03-21T12:17:05.935Z,16.50
2019-03-21T12:18:05.615Z,16.44
2019-03-21T12:19:05.606Z,16.44
2019-03-21T12:20:05.847Z,16.38
2019-03-21T12:21:05.210Z,16.31
2019-03-21T12:22:05.780Z,16.31
2019-03-21T12:23:05.910Z,16.31
2019-03-21T12:24:05.918Z,16.25
2019-03-21T12:25:05.201Z,16.25
2019-03-21T12:26:05.394Z,16.25
2019-03-21T12:27:05.611Z,16.25
2019-03-21T12:28:05.773Z,16.31
2019-03-21T12:29:05.854Z,16.38
2019-03-21T12:30:05.132Z,16.38
2019-03-21T12:31:05.188Z,16.44
2019-03-21T12:32:05.367Z,16.44
2019-03-21T12:33:05.768Z,16.44
2019-03-21T12:34:06.040Z,16.44
2019-03-21T12:35:05.991Z,16.44
2019-03-21T12:36:05.635Z,16.50
2019-03-21T12:37:05.825Z,16.50
2019-03-21T12:38:05.359Z,16.50
2019-03-21T12:39:06.093Z,16.56
2019-03-21T12:40:05.474Z,16.56
2019-03-21T12:41:05.463Z,16.56
2019-03-21T12:42:05.766Z,16.56
2019-03-21T12:43:05.435Z,16.56
2019-03-21T12:44:05.772Z,16.56
2019-03-21T12:45:05.934Z,16.50
2019-03-21T12:46:05.291Z,16.44
2019-03-21T12:47:05.608Z,16.44
2019-03-21T12:48:05.935Z,16.38
2019-03-21T12:49:05.286Z,16.31
2019-03-21T12:50:05.382Z,16.31
2019-03-21T12:51:05.844Z,16.31
2019-03-21T12:52:06.097Z,16.31
2019-03-21T12:53:05.512Z,16.38
2019-03-21T12:54:05.697Z,16.38
2019-03-21T12:55:05.191Z,16.38
2019-03-21T12:56:05.361Z,16.38
2019-03-21T12:57:05.753Z,16.31
2019-03-21T12:58:05.783Z,16.31
2019-03-21T12:59:06.011Z,16.38
2019-03-21T13:00:05.151Z,16.38
2019-03-21T13:01:05.674Z,16.38
2019-03-21T13:02:05.433Z,16.44
2019-03-21T13:03:07.423Z,16.44
2019-03-21T13:04:06.148Z,16.50
2019-03-21T13:05:05.220Z,16.50
2019-03-21T13:06:05.448Z,16.50